sensor_id;sensor_type;location;lat;lon;timestamp;P1;durP1;ratioP1;P2;durP2;ratioP2
59239;SDS011;45010;53.640;10.578;2023-07-16T00:01:21;2.20;;;1.50;;
59239;SDS011;45010;53.640;10.578;2023-07-16T00:04:22;2.78;;;1.48;;
59239;SDS011;45010;53.640;10.578;2023-07-16T00:07:22;2.83;;;1.55;;
59239;SDS011;45010;53.640;10.578;2023-07-16T00:10:22;1.80;;;1.30;;
59239;SDS011;45010;53.640;10.578;2023-07-16T00:13:23;1.67;;;1.20;;
59239;SDS011;45010;53.640;10.578;2023-07-16T00:16:23;2.30;;;1.48;;
59239;SDS011;45010;53.640;10.578;2023-07-16T00:19:23;1.33;;;1.20;;
59239;SDS011;45010;53.640;10.578;2023-07-16T00:22:24;2.63;;;1.60;;
59239;SDS011;45010;53.640;10.578;2023-07-16T00:25:24;1.65;;;1.45;;
59239;SDS011;45010;53.640;10.578;2023-07-16T00:28:24;1.70;;;1.60;;
59239;SDS011;45010;53.640;10.578;2023-07-16T00:31:25;2.67;;;1.27;;
59239;SDS011;45010;53.640;10.578;2023-07-16T00:34:25;1.33;;;1.23;;
59239;SDS011;45010;53.640;10.578;2023-07-16T00:37:25;2.35;;;1.50;;
59239;SDS011;45010;53.640;10.578;2023-07-16T00:40:26;2.85;;;1.33;;
59239;SDS011;45010;53.640;10.578;2023-07-16T00:43:26;1.63;;;1.52;;
59239;SDS011;45010;53.640;10.578;2023-07-16T00:46:26;2.50;;;1.73;;
59239;SDS011;45010;53.640;10.578;2023-07-16T00:49:27;3.28;;;1.65;;
59239;SDS011;45010;53.640;10.578;2023-07-16T00:52:29;1.50;;;1.20;;
59239;SDS011;45010;53.640;10.578;2023-07-16T00:55:29;1.75;;;0.98;;
59239;SDS011;45010;53.640;10.578;2023-07-16T00:58:29;1.70;;;1.40;;
59239;SDS011;45010;53.640;10.578;2023-07-16T01:01:30;1.38;;;1.08;;
59239;SDS011;45010;53.640;10.578;2023-07-16T01:04:30;1.58;;;1.20;;
59239;SDS011;45010;53.640;10.578;2023-07-16T01:07:30;1.60;;;1.20;;
59239;SDS011;45010;53.640;10.578;2023-07-16T01:10:32;2.17;;;1.40;;
59239;SDS011;45010;53.640;10.578;2023-07-16T01:13:34;2.00;;;1.33;;
59239;SDS011;45010;53.640;10.578;2023-07-16T01:16:35;1.65;;;1.00;;
59239;SDS011;45010;53.640;10.578;2023-07-16T01:19:35;1.58;;;1.48;;
59239;SDS011;45010;53.640;10.578;2023-07-16T01:22:42;1.60;;;1.30;;
59239;SDS011;45010;53.640;10.578;2023-07-16T01:26:08;1.90;;;1.38;;
59239;SDS011;45010;53.640;10.578;2023-07-16T01:29:35;1.65;;;0.98;;
59239;SDS011;45010;53.640;10.578;2023-07-16T01:32:38;2.05;;;1.23;;
59239;SDS011;45010;53.640;10.578;2023-07-16T01:35:39;1.30;;;1.20;;
59239;SDS011;45010;53.640;10.578;2023-07-16T01:38:41;1.45;;;1.15;;
59239;SDS011;45010;53.640;10.578;2023-07-16T01:41:41;1.50;;;1.20;;
59239;SDS011;45010;53.640;10.578;2023-07-16T01:44:42;1.63;;;1.10;;
59239;SDS011;45010;53.640;10.578;2023-07-16T01:50:55;1.80;;;1.00;;
59239;SDS011;45010;53.640;10.578;2023-07-16T01:53:56;2.08;;;1.00;;
59239;SDS011;45010;53.640;10.578;2023-07-16T01:56:56;1.50;;;1.10;;
59239;SDS011;45010;53.640;10.578;2023-07-16T01:59:56;1.45;;;1.05;;
59239;SDS011;45010;53.640;10.578;2023-07-16T02:02:57;1.65;;;1.23;;
59239;SDS011;45010;53.640;10.578;2023-07-16T02:05:57;1.80;;;1.40;;
59239;SDS011;45010;53.640;10.578;2023-07-16T02:08:57;2.40;;;1.02;;
59239;SDS011;45010;53.640;10.578;2023-07-16T02:11:58;1.20;;;1.10;;
59239;SDS011;45010;53.640;10.578;2023-07-16T02:14:58;1.20;;;0.85;;
59239;SDS011;45010;53.640;10.578;2023-07-16T02:17:58;1.20;;;0.98;;
59239;SDS011;45010;53.640;10.578;2023-07-16T02:20:59;1.85;;;1.33;;
59239;SDS011;45010;53.640;10.578;2023-07-16T02:23:59;1.73;;;1.13;;
59239;SDS011;45010;53.640;10.578;2023-07-16T02:26:59;1.52;;;0.95;;
59239;SDS011;45010;53.640;10.578;2023-07-16T02:29:59;1.60;;;1.05;;
59239;SDS011;45010;53.640;10.578;2023-07-16T02:33:00;1.33;;;1.02;;
59239;SDS011;45010;53.640;10.578;2023-07-16T02:36:00;1.90;;;1.15;;
59239;SDS011;45010;53.640;10.578;2023-07-16T02:39:01;1.40;;;1.10;;
59239;SDS011;45010;53.640;10.578;2023-07-16T02:42:01;2.65;;;1.20;;
59239;SDS011;45010;53.640;10.578;2023-07-16T02:45:01;1.23;;;1.05;;
59239;SDS011;45010;53.640;10.578;2023-07-16T02:48:02;2.90;;;1.30;;
59239;SDS011;45010;53.640;10.578;2023-07-16T02:51:03;1.60;;;1.00;;
59239;SDS011;45010;53.640;10.578;2023-07-16T02:54:03;2.10;;;1.30;;
59239;SDS011;45010;53.640;10.578;2023-07-16T02:57:04;1.75;;;1.10;;
59239;SDS011;45010;53.640;10.578;2023-07-16T03:00:05;1.38;;;1.02;;
59239;SDS011;45010;53.640;10.578;2023-07-16T03:03:06;1.20;;;1.10;;
59239;SDS011;45010;53.640;10.578;2023-07-16T03:06:06;2.22;;;1.10;;
59239;SDS011;45010;53.640;10.578;2023-07-16T03:09:07;2.22;;;1.00;;
59239;SDS011;45010;53.640;10.578;2023-07-16T03:12:07;1.40;;;1.17;;
59239;SDS011;45010;53.640;10.578;2023-07-16T03:15:08;1.60;;;1.20;;
59239;SDS011;45010;53.640;10.578;2023-07-16T03:18:09;1.92;;;1.15;;
59239;SDS011;45010;53.640;10.578;2023-07-16T03:21:09;2.10;;;1.35;;
59239;SDS011;45010;53.640;10.578;2023-07-16T03:24:09;1.08;;;0.90;;
59239;SDS011;45010;53.640;10.578;2023-07-16T03:27:10;1.85;;;1.02;;
59239;SDS011;45010;53.640;10.578;2023-07-16T03:30:10;1.20;;;1.00;;
59239;SDS011;45010;53.640;10.578;2023-07-16T03:33:10;1.40;;;0.90;;
59239;SDS011;45010;53.640;10.578;2023-07-16T03:36:11;1.30;;;0.80;;
59239;SDS011;45010;53.640;10.578;2023-07-16T03:39:11;2.35;;;1.02;;
59239;SDS011;45010;53.640;10.578;2023-07-16T03:42:11;1.10;;;0.95;;
59239;SDS011;45010;53.640;10.578;2023-07-16T03:45:12;1.98;;;1.17;;
59239;SDS011;45010;53.640;10.578;2023-07-16T03:48:13;1.15;;;1.05;;
59239;SDS011;45010;53.640;10.578;2023-07-16T03:51:13;1.50;;;1.05;;
59239;SDS011;45010;53.640;10.578;2023-07-16T03:54:14;1.17;;;0.90;;
59239;SDS011;45010;53.640;10.578;2023-07-16T03:57:14;1.40;;;1.00;;
59239;SDS011;45010;53.640;10.578;2023-07-16T04:00:14;1.20;;;0.90;;
59239;SDS011;45010;53.640;10.578;2023-07-16T04:03:15;2.70;;;1.25;;
59239;SDS011;45010;53.640;10.578;2023-07-16T04:06:15;1.50;;;1.10;;
59239;SDS011;45010;53.640;10.578;2023-07-16T04:09:15;1.60;;;1.02;;
59239;SDS011;45010;53.640;10.578;2023-07-16T04:12:16;1.50;;;1.00;;
59239;SDS011;45010;53.640;10.578;2023-07-16T04:15:16;1.30;;;1.00;;
59239;SDS011;45010;53.640;10.578;2023-07-16T04:18:16;2.42;;;1.10;;
59239;SDS011;45010;53.640;10.578;2023-07-16T04:21:17;1.38;;;0.63;;
59239;SDS011;45010;53.640;10.578;2023-07-16T04:24:17;1.73;;;0.90;;
59239;SDS011;45010;53.640;10.578;2023-07-16T04:27:17;1.20;;;0.90;;
59239;SDS011;45010;53.640;10.578;2023-07-16T04:30:18;1.52;;;0.93;;
59239;SDS011;45010;53.640;10.578;2023-07-16T04:33:18;1.23;;;0.93;;
59239;SDS011;45010;53.640;10.578;2023-07-16T04:36:19;1.10;;;0.80;;
59239;SDS011;45010;53.640;10.578;2023-07-16T04:39:19;1.70;;;0.98;;
59239;SDS011;45010;53.640;10.578;2023-07-16T04:42:19;1.35;;;0.70;;
59239;SDS011;45010;53.640;10.578;2023-07-16T04:45:20;1.35;;;1.00;;
59239;SDS011;45010;53.640;10.578;2023-07-16T04:48:21;1.15;;;0.95;;
59239;SDS011;45010;53.640;10.578;2023-07-16T04:51:21;1.67;;;1.10;;
59239;SDS011;45010;53.640;10.578;2023-07-16T04:54:21;1.95;;;1.00;;
59239;SDS011;45010;53.640;10.578;2023-07-16T04:57:22;0.93;;;0.85;;
59239;SDS011;45010;53.640;10.578;2023-07-16T05:00:22;1.60;;;1.20;;
59239;SDS011;45010;53.640;10.578;2023-07-16T05:03:23;1.27;;;0.90;;
59239;SDS011;45010;53.640;10.578;2023-07-16T05:06:23;3.10;;;1.00;;
59239;SDS011;45010;53.640;10.578;2023-07-16T05:09:23;1.67;;;0.80;;
59239;SDS011;45010;53.640;10.578;2023-07-16T05:12:24;1.75;;;1.00;;
59239;SDS011;45010;53.640;10.578;2023-07-16T05:15:24;1.40;;;1.00;;
59239;SDS011;45010;53.640;10.578;2023-07-16T05:18:24;3.00;;;1.45;;
59239;SDS011;45010;53.640;10.578;2023-07-16T05:21:24;2.72;;;1.20;;
59239;SDS011;45010;53.640;10.578;2023-07-16T05:24:25;2.10;;;1.30;;
59239;SDS011;45010;53.640;10.578;2023-07-16T05:27:25;2.67;;;1.27;;
59239;SDS011;45010;53.640;10.578;2023-07-16T05:30:26;1.77;;;1.10;;
59239;SDS011;45010;53.640;10.578;2023-07-16T05:33:26;1.98;;;1.45;;
59239;SDS011;45010;53.640;10.578;2023-07-16T05:36:26;2.10;;;1.30;;
59239;SDS011;45010;53.640;10.578;2023-07-16T05:39:27;2.65;;;1.25;;
59239;SDS011;45010;53.640;10.578;2023-07-16T05:42:27;3.53;;;1.17;;
59239;SDS011;45010;53.640;10.578;2023-07-16T05:45:27;1.83;;;1.13;;
59239;SDS011;45010;53.640;10.578;2023-07-16T05:48:28;3.30;;;1.45;;
59239;SDS011;45010;53.640;10.578;2023-07-16T05:51:28;3.58;;;1.30;;
59239;SDS011;45010;53.640;10.578;2023-07-16T05:54:28;1.90;;;1.10;;
59239;SDS011;45010;53.640;10.578;2023-07-16T05:57:29;3.47;;;1.33;;
59239;SDS011;45010;53.640;10.578;2023-07-16T06:00:29;2.67;;;1.55;;
59239;SDS011;45010;53.640;10.578;2023-07-16T06:03:29;3.30;;;1.48;;
59239;SDS011;45010;53.640;10.578;2023-07-16T06:06:30;3.72;;;1.85;;
59239;SDS011;45010;53.640;10.578;2023-07-16T06:09:30;2.05;;;1.27;;
59239;SDS011;45010;53.640;10.578;2023-07-16T06:12:31;3.10;;;1.50;;
59239;SDS011;45010;53.640;10.578;2023-07-16T06:15:31;3.63;;;1.67;;
59239;SDS011;45010;53.640;10.578;2023-07-16T06:18:31;3.22;;;1.50;;
59239;SDS011;45010;53.640;10.578;2023-07-16T06:21:32;3.28;;;1.63;;
59239;SDS011;45010;53.640;10.578;2023-07-16T06:24:32;2.80;;;1.40;;
59239;SDS011;45010;53.640;10.578;2023-07-16T06:27:32;3.08;;;1.60;;
59239;SDS011;45010;53.640;10.578;2023-07-16T06:30:33;3.85;;;1.42;;
59239;SDS011;45010;53.640;10.578;2023-07-16T06:33:33;6.38;;;2.70;;
59239;SDS011;45010;53.640;10.578;2023-07-16T06:36:34;4.28;;;1.52;;
59239;SDS011;45010;53.640;10.578;2023-07-16T06:39:34;4.80;;;1.70;;
59239;SDS011;45010;53.640;10.578;2023-07-16T06:42:34;3.20;;;1.35;;
59239;SDS011;45010;53.640;10.578;2023-07-16T06:45:35;4.97;;;1.67;;
59239;SDS011;45010;53.640;10.578;2023-07-16T06:48:35;3.95;;;1.70;;
59239;SDS011;45010;53.640;10.578;2023-07-16T06:51:35;4.25;;;1.73;;
59239;SDS011;45010;53.640;10.578;2023-07-16T06:54:36;4.75;;;1.50;;
59239;SDS011;45010;53.640;10.578;2023-07-16T06:57:36;3.30;;;1.70;;
59239;SDS011;45010;53.640;10.578;2023-07-16T07:00:37;2.53;;;1.52;;
59239;SDS011;45010;53.640;10.578;2023-07-16T07:03:37;3.42;;;1.77;;
59239;SDS011;45010;53.640;10.578;2023-07-16T07:06:37;5.10;;;1.73;;
59239;SDS011;45010;53.640;10.578;2023-07-16T07:09:38;2.20;;;1.40;;
59239;SDS011;45010;53.640;10.578;2023-07-16T07:12:38;4.68;;;1.80;;
59239;SDS011;45010;53.640;10.578;2023-07-16T07:15:39;3.10;;;1.50;;
59239;SDS011;45010;53.640;10.578;2023-07-16T07:18:39;6.22;;;1.58;;
59239;SDS011;45010;53.640;10.578;2023-07-16T07:21:40;3.90;;;1.40;;
59239;SDS011;45010;53.640;10.578;2023-07-16T07:24:40;3.83;;;1.63;;
59239;SDS011;45010;53.640;10.578;2023-07-16T07:27:40;4.32;;;1.67;;
59239;SDS011;45010;53.640;10.578;2023-07-16T07:30:41;4.75;;;1.75;;
59239;SDS011;45010;53.640;10.578;2023-07-16T07:33:41;3.92;;;2.05;;
59239;SDS011;45010;53.640;10.578;2023-07-16T07:36:41;3.30;;;1.70;;
59239;SDS011;45010;53.640;10.578;2023-07-16T07:39:42;4.40;;;1.73;;
59239;SDS011;45010;53.640;10.578;2023-07-16T07:42:42;4.43;;;1.92;;
59239;SDS011;45010;53.640;10.578;2023-07-16T07:45:43;4.25;;;1.45;;
59239;SDS011;45010;53.640;10.578;2023-07-16T07:48:43;2.67;;;1.40;;
59239;SDS011;45010;53.640;10.578;2023-07-16T07:51:44;3.90;;;1.52;;
59239;SDS011;45010;53.640;10.578;2023-07-16T07:54:44;5.35;;;1.70;;
59239;SDS011;45010;53.640;10.578;2023-07-16T07:57:45;3.53;;;1.90;;
59239;SDS011;45010;53.640;10.578;2023-07-16T08:00:45;3.63;;;1.70;;
59239;SDS011;45010;53.640;10.578;2023-07-16T08:03:45;5.20;;;1.70;;
59239;SDS011;45010;53.640;10.578;2023-07-16T08:06:45;5.45;;;1.90;;
59239;SDS011;45010;53.640;10.578;2023-07-16T08:09:46;3.95;;;2.17;;
59239;SDS011;45010;53.640;10.578;2023-07-16T08:12:47;4.25;;;1.77;;
59239;SDS011;45010;53.640;10.578;2023-07-16T08:15:48;4.75;;;1.80;;
59239;SDS011;45010;53.640;10.578;2023-07-16T08:18:48;4.88;;;2.13;;
59239;SDS011;45010;53.640;10.578;2023-07-16T08:21:49;3.65;;;1.63;;
59239;SDS011;45010;53.640;10.578;2023-07-16T08:24:50;5.40;;;1.67;;
59239;SDS011;45010;53.640;10.578;2023-07-16T08:27:51;4.32;;;1.95;;
59239;SDS011;45010;53.640;10.578;2023-07-16T08:30:51;6.90;;;1.95;;
59239;SDS011;45010;53.640;10.578;2023-07-16T08:33:52;5.88;;;1.95;;
59239;SDS011;45010;53.640;10.578;2023-07-16T08:36:52;5.88;;;2.33;;
59239;SDS011;45010;53.640;10.578;2023-07-16T08:39:52;4.82;;;2.15;;
59239;SDS011;45010;53.640;10.578;2023-07-16T08:42:55;13.50;;;2.25;;
59239;SDS011;45010;53.640;10.578;2023-07-16T08:45:56;4.63;;;1.95;;
59239;SDS011;45010;53.640;10.578;2023-07-16T08:48:57;4.93;;;1.98;;
59239;SDS011;45010;53.640;10.578;2023-07-16T08:52:00;4.50;;;1.83;;
59239;SDS011;45010;53.640;10.578;2023-07-16T08:55:01;5.57;;;2.22;;
59239;SDS011;45010;53.640;10.578;2023-07-16T08:58:01;3.95;;;2.10;;
59239;SDS011;45010;53.640;10.578;2023-07-16T09:01:03;4.57;;;1.98;;
59239;SDS011;45010;53.640;10.578;2023-07-16T09:04:05;5.70;;;1.73;;
59239;SDS011;45010;53.640;10.578;2023-07-16T09:07:05;6.40;;;2.08;;
59239;SDS011;45010;53.640;10.578;2023-07-16T09:10:06;3.80;;;1.80;;
59239;SDS011;45010;53.640;10.578;2023-07-16T09:13:06;4.38;;;1.98;;
59239;SDS011;45010;53.640;10.578;2023-07-16T09:16:07;3.35;;;1.67;;
59239;SDS011;45010;53.640;10.578;2023-07-16T09:19:09;5.97;;;2.03;;
59239;SDS011;45010;53.640;10.578;2023-07-16T09:22:10;5.13;;;2.15;;
59239;SDS011;45010;53.640;10.578;2023-07-16T09:25:11;8.07;;;3.30;;
59239;SDS011;45010;53.640;10.578;2023-07-16T09:28:11;4.95;;;2.60;;
59239;SDS011;45010;53.640;10.578;2023-07-16T09:31:12;4.60;;;2.42;;
59239;SDS011;45010;53.640;10.578;2023-07-16T09:34:12;8.35;;;2.30;;
59239;SDS011;45010;53.640;10.578;2023-07-16T09:37:13;3.00;;;1.90;;
59239;SDS011;45010;53.640;10.578;2023-07-16T09:40:13;3.58;;;1.98;;
59239;SDS011;45010;53.640;10.578;2023-07-16T09:43:13;5.00;;;2.03;;
59239;SDS011;45010;53.640;10.578;2023-07-16T09:46:14;3.08;;;2.08;;
59239;SDS011;45010;53.640;10.578;2023-07-16T09:49:14;4.72;;;2.53;;
59239;SDS011;45010;53.640;10.578;2023-07-16T09:52:15;4.85;;;2.15;;
59239;SDS011;45010;53.640;10.578;2023-07-16T09:55:16;4.53;;;2.22;;
59239;SDS011;45010;53.640;10.578;2023-07-16T09:58:18;5.25;;;2.58;;
59239;SDS011;45010;53.640;10.578;2023-07-16T10:01:20;3.90;;;2.45;;
59239;SDS011;45010;53.640;10.578;2023-07-16T10:04:21;4.32;;;2.35;;
59239;SDS011;45010;53.640;10.578;2023-07-16T10:07:22;6.03;;;2.75;;
59239;SDS011;45010;53.640;10.578;2023-07-16T10:10:44;6.95;;;2.65;;
59239;SDS011;45010;53.640;10.578;2023-07-16T10:13:49;7.00;;;3.90;;
59239;SDS011;45010;53.640;10.578;2023-07-16T10:16:50;9.52;;;3.88;;
59239;SDS011;45010;53.640;10.578;2023-07-16T10:23:20;7.80;;;3.80;;
59239;SDS011;45010;53.640;10.578;2023-07-16T10:26:25;8.07;;;3.05;;
59239;SDS011;45010;53.640;10.578;2023-07-16T10:29:28;6.55;;;3.30;;
59239;SDS011;45010;53.640;10.578;2023-07-16T10:32:28;6.40;;;3.10;;
59239;SDS011;45010;53.640;10.578;2023-07-16T10:35:29;4.35;;;3.03;;
59239;SDS011;45010;53.640;10.578;2023-07-16T10:38:30;5.22;;;2.88;;
59239;SDS011;45010;53.640;10.578;2023-07-16T10:41:40;5.57;;;3.00;;
59239;SDS011;45010;53.640;10.578;2023-07-16T10:44:40;6.25;;;3.47;;
59239;SDS011;45010;53.640;10.578;2023-07-16T10:47:50;5.45;;;3.10;;
59239;SDS011;45010;53.640;10.578;2023-07-16T10:50:55;5.10;;;3.10;;
59239;SDS011;45010;53.640;10.578;2023-07-16T10:53:55;5.95;;;2.97;;
59239;SDS011;45010;53.640;10.578;2023-07-16T10:56:56;5.53;;;2.80;;
59239;SDS011;45010;53.640;10.578;2023-07-16T10:59:57;4.95;;;3.22;;
59239;SDS011;45010;53.640;10.578;2023-07-16T11:02:58;4.53;;;2.95;;
59239;SDS011;45010;53.640;10.578;2023-07-16T11:05:59;6.40;;;3.45;;
59239;SDS011;45010;53.640;10.578;2023-07-16T11:09:06;6.72;;;3.13;;
59239;SDS011;45010;53.640;10.578;2023-07-16T11:12:10;5.90;;;2.97;;
59239;SDS011;45010;53.640;10.578;2023-07-16T11:15:12;8.38;;;3.28;;
59239;SDS011;45010;53.640;10.578;2023-07-16T11:18:13;7.70;;;3.10;;
59239;SDS011;45010;53.640;10.578;2023-07-16T11:21:13;5.72;;;2.88;;
59239;SDS011;45010;53.640;10.578;2023-07-16T11:24:14;6.07;;;2.83;;
59239;SDS011;45010;53.640;10.578;2023-07-16T11:27:27;3.50;;;3.20;;
59239;SDS011;45010;53.640;10.578;2023-07-16T11:30:31;14.82;;;3.55;;
59239;SDS011;45010;53.640;10.578;2023-07-16T11:33:35;5.93;;;3.00;;
59239;SDS011;45010;53.640;10.578;2023-07-16T11:36:36;9.15;;;3.60;;
59239;SDS011;45010;53.640;10.578;2023-07-16T11:39:36;11.80;;;3.28;;
59239;SDS011;45010;53.640;10.578;2023-07-16T11:42:37;6.35;;;2.90;;
59239;SDS011;45010;53.640;10.578;2023-07-16T11:45:39;6.80;;;2.88;;
59239;SDS011;45010;53.640;10.578;2023-07-16T11:48:39;4.80;;;2.67;;
59239;SDS011;45010;53.640;10.578;2023-07-16T11:51:39;6.25;;;2.63;;
59239;SDS011;45010;53.640;10.578;2023-07-16T11:54:40;3.78;;;2.90;;
59239;SDS011;45010;53.640;10.578;2023-07-16T11:57:40;13.68;;;3.78;;
59239;SDS011;45010;53.640;10.578;2023-07-16T12:00:40;6.40;;;2.92;;
59239;SDS011;45010;53.640;10.578;2023-07-16T12:03:41;6.15;;;3.10;;
59239;SDS011;45010;53.640;10.578;2023-07-16T12:06:41;5.15;;;3.65;;
59239;SDS011;45010;53.640;10.578;2023-07-16T12:09:41;10.98;;;3.53;;
59239;SDS011;45010;53.640;10.578;2023-07-16T12:12:42;9.68;;;2.80;;
59239;SDS011;45010;53.640;10.578;2023-07-16T12:15:42;6.57;;;3.10;;
59239;SDS011;45010;53.640;10.578;2023-07-16T12:18:42;6.50;;;3.38;;
59239;SDS011;45010;53.640;10.578;2023-07-16T12:21:43;5.75;;;2.83;;
59239;SDS011;45010;53.640;10.578;2023-07-16T12:24:43;4.68;;;2.90;;
59239;SDS011;45010;53.640;10.578;2023-07-16T12:27:44;4.43;;;3.08;;
59239;SDS011;45010;53.640;10.578;2023-07-16T12:30:44;6.10;;;2.75;;
59239;SDS011;45010;53.640;10.578;2023-07-16T12:33:45;5.10;;;3.25;;
59239;SDS011;45010;53.640;10.578;2023-07-16T12:36:45;3.28;;;2.35;;
59239;SDS011;45010;53.640;10.578;2023-07-16T12:39:45;4.45;;;2.88;;
59239;SDS011;45010;53.640;10.578;2023-07-16T12:42:46;5.15;;;2.80;;
59239;SDS011;45010;53.640;10.578;2023-07-16T12:45:46;5.30;;;2.95;;
59239;SDS011;45010;53.640;10.578;2023-07-16T12:48:46;4.97;;;2.92;;
59239;SDS011;45010;53.640;10.578;2023-07-16T12:51:47;4.28;;;2.40;;
59239;SDS011;45010;53.640;10.578;2023-07-16T12:54:47;3.67;;;2.55;;
59239;SDS011;45010;53.640;10.578;2023-07-16T12:57:47;4.55;;;2.75;;
59239;SDS011;45010;53.640;10.578;2023-07-16T13:00:47;6.05;;;3.20;;
59239;SDS011;45010;53.640;10.578;2023-07-16T13:03:48;4.68;;;3.08;;
59239;SDS011;45010;53.640;10.578;2023-07-16T13:06:48;5.97;;;3.13;;
59239;SDS011;45010;53.640;10.578;2023-07-16T13:09:48;4.90;;;2.65;;
59239;SDS011;45010;53.640;10.578;2023-07-16T13:12:49;6.32;;;2.55;;
59239;SDS011;45010;53.640;10.578;2023-07-16T13:15:49;3.90;;;2.70;;
59239;SDS011;45010;53.640;10.578;2023-07-16T13:18:49;5.35;;;3.13;;
59239;SDS011;45010;53.640;10.578;2023-07-16T13:21:50;5.15;;;2.83;;
59239;SDS011;45010;53.640;10.578;2023-07-16T13:24:50;5.90;;;2.90;;
59239;SDS011;45010;53.640;10.578;2023-07-16T13:27:50;8.38;;;2.88;;
59239;SDS011;45010;53.640;10.578;2023-07-16T13:30:53;3.88;;;2.40;;
59239;SDS011;45010;53.640;10.578;2023-07-16T13:33:53;4.15;;;2.65;;
59239;SDS011;45010;53.640;10.578;2023-07-16T13:36:54;6.15;;;2.45;;
59239;SDS011;45010;53.640;10.578;2023-07-16T13:39:54;4.78;;;2.72;;
59239;SDS011;45010;53.640;10.578;2023-07-16T13:42:54;6.80;;;2.85;;
59239;SDS011;45010;53.640;10.578;2023-07-16T13:45:55;5.32;;;2.40;;
59239;SDS011;45010;53.640;10.578;2023-07-16T13:48:55;4.32;;;2.17;;
59239;SDS011;45010;53.640;10.578;2023-07-16T13:51:55;5.05;;;2.60;;
59239;SDS011;45010;53.640;10.578;2023-07-16T13:54:56;5.90;;;2.67;;
59239;SDS011;45010;53.640;10.578;2023-07-16T13:57:56;5.50;;;2.38;;
59239;SDS011;45010;53.640;10.578;2023-07-16T14:00:56;4.75;;;2.75;;
59239;SDS011;45010;53.640;10.578;2023-07-16T14:03:56;3.40;;;2.15;;
59239;SDS011;45010;53.640;10.578;2023-07-16T14:06:57;6.70;;;2.63;;
59239;SDS011;45010;53.640;10.578;2023-07-16T14:09:58;4.38;;;2.03;;
59239;SDS011;45010;53.640;10.578;2023-07-16T14:12:59;2.83;;;2.08;;
59239;SDS011;45010;53.640;10.578;2023-07-16T14:15:59;4.18;;;2.22;;
59239;SDS011;45010;53.640;10.578;2023-07-16T14:18:59;4.85;;;2.80;;
59239;SDS011;45010;53.640;10.578;2023-07-16T14:22:00;5.82;;;2.25;;
59239;SDS011;45010;53.640;10.578;2023-07-16T14:25:00;5.10;;;2.75;;
59239;SDS011;45010;53.640;10.578;2023-07-16T14:28:00;4.30;;;2.22;;
59239;SDS011;45010;53.640;10.578;2023-07-16T14:31:01;4.82;;;2.83;;
59239;SDS011;45010;53.640;10.578;2023-07-16T14:34:01;3.80;;;2.45;;
59239;SDS011;45010;53.640;10.578;2023-07-16T14:37:02;4.30;;;2.03;;
59239;SDS011;45010;53.640;10.578;2023-07-16T14:40:02;3.63;;;2.25;;
59239;SDS011;45010;53.640;10.578;2023-07-16T14:43:05;4.07;;;2.38;;
59239;SDS011;45010;53.640;10.578;2023-07-16T14:46:06;4.95;;;2.20;;
59239;SDS011;45010;53.640;10.578;2023-07-16T14:49:06;5.22;;;2.20;;
59239;SDS011;45010;53.640;10.578;2023-07-16T14:52:06;4.82;;;2.15;;
59239;SDS011;45010;53.640;10.578;2023-07-16T14:55:07;9.48;;;2.20;;
59239;SDS011;45010;53.640;10.578;2023-07-16T14:58:08;4.75;;;2.30;;
59239;SDS011;45010;53.640;10.578;2023-07-16T15:01:08;5.85;;;2.10;;
59239;SDS011;45010;53.640;10.578;2023-07-16T15:04:08;3.05;;;1.92;;
59239;SDS011;45010;53.640;10.578;2023-07-16T15:07:09;5.38;;;2.10;;
59239;SDS011;45010;53.640;10.578;2023-07-16T15:10:09;6.00;;;2.33;;
59239;SDS011;45010;53.640;10.578;2023-07-16T15:13:10;4.65;;;2.03;;
59239;SDS011;45010;53.640;10.578;2023-07-16T15:16:12;4.40;;;2.30;;
59239;SDS011;45010;53.640;10.578;2023-07-16T15:19:13;5.75;;;2.22;;
59239;SDS011;45010;53.640;10.578;2023-07-16T15:22:13;6.53;;;2.50;;
59239;SDS011;45010;53.640;10.578;2023-07-16T15:25:16;4.80;;;2.53;;
59239;SDS011;45010;53.640;10.578;2023-07-16T15:28:16;4.82;;;2.28;;
59239;SDS011;45010;53.640;10.578;2023-07-16T15:31:17;5.97;;;2.47;;
59239;SDS011;45010;53.640;10.578;2023-07-16T15:34:17;3.90;;;2.22;;
59239;SDS011;45010;53.640;10.578;2023-07-16T15:37:18;5.80;;;2.70;;
59239;SDS011;45010;53.640;10.578;2023-07-16T15:40:18;5.13;;;2.38;;
59239;SDS011;45010;53.640;10.578;2023-07-16T15:43:19;3.67;;;2.58;;
59239;SDS011;45010;53.640;10.578;2023-07-16T15:46:19;5.80;;;2.85;;
59239;SDS011;45010;53.640;10.578;2023-07-16T15:49:19;3.58;;;2.13;;
59239;SDS011;45010;53.640;10.578;2023-07-16T15:52:20;5.50;;;2.58;;
59239;SDS011;45010;53.640;10.578;2023-07-16T15:55:20;3.55;;;1.98;;
59239;SDS011;45010;53.640;10.578;2023-07-16T15:58:22;4.82;;;2.42;;
59239;SDS011;45010;53.640;10.578;2023-07-16T16:01:22;4.03;;;2.50;;
59239;SDS011;45010;53.640;10.578;2023-07-16T16:04:22;4.22;;;2.55;;
59239;SDS011;45010;53.640;10.578;2023-07-16T16:07:23;5.90;;;2.75;;
59239;SDS011;45010;53.640;10.578;2023-07-16T16:10:23;5.50;;;2.75;;
59239;SDS011;45010;53.640;10.578;2023-07-16T16:13:23;5.32;;;2.30;;
59239;SDS011;45010;53.640;10.578;2023-07-16T16:16:26;4.47;;;2.60;;
59239;SDS011;45010;53.640;10.578;2023-07-16T16:19:27;5.82;;;2.55;;
59239;SDS011;45010;53.640;10.578;2023-07-16T16:22:27;4.57;;;2.22;;
59239;SDS011;45010;53.640;10.578;2023-07-16T16:25:29;4.68;;;2.53;;
59239;SDS011;45010;53.640;10.578;2023-07-16T16:28:33;4.38;;;2.70;;
59239;SDS011;45010;53.640;10.578;2023-07-16T16:31:33;5.60;;;2.83;;
59239;SDS011;45010;53.640;10.578;2023-07-16T16:34:34;5.13;;;2.75;;
59239;SDS011;45010;53.640;10.578;2023-07-16T16:37:36;5.13;;;2.53;;
59239;SDS011;45010;53.640;10.578;2023-07-16T16:40:36;5.25;;;2.97;;
59239;SDS011;45010;53.640;10.578;2023-07-16T16:43:38;7.10;;;2.40;;
59239;SDS011;45010;53.640;10.578;2023-07-16T16:46:38;5.05;;;2.72;;
59239;SDS011;45010;53.640;10.578;2023-07-16T16:49:39;4.68;;;2.60;;
59239;SDS011;45010;53.640;10.578;2023-07-16T16:52:40;4.88;;;2.50;;
59239;SDS011;45010;53.640;10.578;2023-07-16T16:55:40;6.28;;;2.95;;
59239;SDS011;45010;53.640;10.578;2023-07-16T16:58:41;4.30;;;2.63;;
59239;SDS011;45010;53.640;10.578;2023-07-16T17:01:41;4.05;;;2.70;;
59239;SDS011;45010;53.640;10.578;2023-07-16T17:04:41;5.30;;;2.70;;
59239;SDS011;45010;53.640;10.578;2023-07-16T17:07:43;4.55;;;2.58;;
59239;SDS011;45010;53.640;10.578;2023-07-16T17:10:43;5.57;;;2.58;;
59239;SDS011;45010;53.640;10.578;2023-07-16T17:13:44;6.53;;;3.20;;
59239;SDS011;45010;53.640;10.578;2023-07-16T17:16:44;7.25;;;3.00;;
59239;SDS011;45010;53.640;10.578;2023-07-16T17:19:47;6.78;;;3.40;;
59239;SDS011;45010;53.640;10.578;2023-07-16T17:22:48;7.00;;;2.72;;
59239;SDS011;45010;53.640;10.578;2023-07-16T17:25:48;6.45;;;2.97;;
59239;SDS011;45010;53.640;10.578;2023-07-16T17:28:49;5.15;;;2.50;;
59239;SDS011;45010;53.640;10.578;2023-07-16T17:31:49;5.13;;;2.58;;
59239;SDS011;45010;53.640;10.578;2023-07-16T17:34:50;5.30;;;2.90;;
59239;SDS011;45010;53.640;10.578;2023-07-16T17:37:50;4.82;;;2.70;;
59239;SDS011;45010;53.640;10.578;2023-07-16T17:40:50;5.45;;;2.80;;
59239;SDS011;45010;53.640;10.578;2023-07-16T17:43:51;4.93;;;2.60;;
59239;SDS011;45010;53.640;10.578;2023-07-16T17:46:51;5.05;;;2.70;;
59239;SDS011;45010;53.640;10.578;2023-07-16T17:49:51;5.65;;;2.67;;
59239;SDS011;45010;53.640;10.578;2023-07-16T17:52:52;4.10;;;2.60;;
59239;SDS011;45010;53.640;10.578;2023-07-16T17:55:52;7.15;;;2.80;;
59239;SDS011;45010;53.640;10.578;2023-07-16T17:58:53;4.90;;;2.50;;